createdAt,value
2019-04-21T00:01:52.867Z,95572.52
2019-04-21T00:05:25.983Z,95573.33
2019-04-21T00:08:39.209Z,95573.91
2019-04-21T00:11:40.840Z,95566.80
2019-04-21T00:14:43.771Z,95565.75
2019-04-21T00:17:42.736Z,95562.00
2019-04-21T00:20:52.714Z,95569.03
2019-04-21T00:24:23.902Z,95562.28
2019-04-21T00:27:33.733Z,95561.58
2019-04-21T00:30:50.557Z,95552.70
2019-04-21T00:33:41.607Z,95549.41
2019-04-21T00:37:00.084Z,95547.30
2019-04-21T00:40:17.829Z,95543.52
2019-04-21T00:43:26.566Z,95544.70
2019-04-21T00:46:32.404Z,95535.78
2019-04-21T00:49:47.864Z,95533.81
2019-04-21T00:53:05.807Z,95536.37
2019-04-21T00:56:33.929Z,95534.92
2019-04-21T00:59:30.151Z,95530.72
2019-04-21T01:02:43.127Z,95533.77
2019-04-21T01:05:47.209Z,95529.13
2019-04-21T01:08:55.729Z,95529.55
2019-04-21T01:12:03.820Z,95524.94
2019-04-21T01:15:20.907Z,95528.43
2019-04-21T01:18:27.144Z,95528.53
2019-04-21T01:21:14.585Z,95533.73
2019-04-21T01:24:30.747Z,95531.03
2019-04-21T01:27:52.157Z,95533.67
2019-04-21T01:31:03.450Z,95533.02
2019-04-21T01:34:08.718Z,95529.13
2019-04-21T01:37:21.167Z,95519.66
2019-04-21T01:40:41.115Z,95521.97
2019-04-21T01:43:39.496Z,95523.27
2019-04-21T01:46:45.756Z,95511.45
2019-04-21T01:49:52.770Z,95513.41
2019-04-21T01:53:19.752Z,95498.00
2019-04-21T01:56:44.525Z,95498.95
2019-04-21T01:59:47.359Z,95500.47
2019-04-21T02:03:40.671Z,95501.59
2019-04-21T02:06:33.169Z,95499.02
2019-04-21T02:09:41.983Z,95493.88
2019-04-21T02:12:51.277Z,95491.64
2019-04-21T02:16:06.893Z,95502.28
2019-04-21T02:19:08.247Z,95498.74
2019-04-21T02:22:19.226Z,95499.43
2019-04-21T02:25:31.810Z,95494.81
2019-04-21T02:32:05.705Z,95490.50
2019-04-21T02:35:14.156Z,95482.36
2019-04-21T02:38:20.555Z,95488.66
2019-04-21T02:41:30.797Z,95473.47
2019-04-21T02:44:43.017Z,95479.00
2019-04-21T02:48:04.559Z,95478.72
2019-04-21T02:51:17.397Z,95476.67
2019-04-21T03:03:52.842Z,95469.31
2019-04-21T03:07:14.896Z,95464.07
2019-04-21T03:10:20.683Z,95454.92
2019-04-21T03:13:29.099Z,95453.09
2019-04-21T03:20:00.679Z,95448.80
2019-04-21T03:22:59.984Z,95445.17
2019-04-21T03:26:14.340Z,95449.84
2019-04-21T03:29:24.507Z,95449.10
2019-04-21T03:38:51.049Z,95433.91
2019-04-21T03:42:18.876Z,95426.00
2019-04-21T03:45:03.526Z,95428.06
2019-04-21T03:48:21.638Z,95430.38
2019-04-21T03:51:37.653Z,95423.27
2019-04-21T03:54:37.377Z,95424.58
2019-04-21T03:58:00.342Z,95431.86
2019-04-21T04:01:16.720Z,95425.25
2019-04-21T04:08:23.091Z,95436.80
2019-04-21T04:14:24.961Z,95432.04
2019-04-21T04:17:25.501Z,95425.21
2019-04-21T04:23:55.842Z,95426.53
2019-04-21T04:30:14.211Z,95426.75
2019-04-21T04:33:30.426Z,95424.98
2019-04-21T04:43:31.088Z,95422.67
2019-04-21T04:46:44.273Z,95416.07
2019-04-21T04:49:55.074Z,95414.98
2019-04-21T04:56:05.860Z,95416.20
2019-04-21T05:02:31.728Z,95413.09
2019-04-21T05:05:49.123Z,95411.30
2019-04-21T05:08:52.946Z,95409.01
2019-04-21T05:15:06.428Z,95405.27
2019-04-21T05:18:05.288Z,95397.09
2019-04-21T05:21:23.260Z,95392.30
2019-04-21T05:24:16.604Z,95397.85
2019-04-21T05:27:29.393Z,95391.83
2019-04-21T05:31:19.807Z,95392.77
2019-04-21T05:34:30.503Z,95398.33
2019-04-21T05:37:56.657Z,95397.73
2019-04-21T05:40:55.256Z,95392.95
2019-04-21T05:44:19.341Z,95390.32
2019-04-21T05:47:35.323Z,95387.82
2019-04-21T05:50:32.562Z,95384.47
2019-04-21T05:53:55.934Z,95385.53
2019-04-21T05:56:59.770Z,95382.84
2019-04-21T06:00:12.321Z,95384.09
2019-04-21T06:03:23.126Z,95378.26
2019-04-21T06:06:33.625Z,95379.18
2019-04-21T06:09:48.775Z,95382.52
2019-04-21T06:12:51.090Z,95380.83
2019-04-21T06:15:58.000Z,95381.56
2019-04-21T06:19:03.356Z,95373.44
2019-04-21T06:22:14.843Z,95372.65
2019-04-21T06:28:42.659Z,95367.13
2019-04-21T06:32:16.496Z,95370.59
2019-04-21T06:35:12.720Z,95364.98
2019-04-21T06:38:16.592Z,95367.84
2019-04-21T06:41:30.327Z,95365.19
2019-04-21T06:44:33.057Z,95373.81
2019-04-21T06:50:52.830Z,95363.21
2019-04-21T06:57:00.928Z,95360.69
2019-04-21T07:00:11.813Z,95357.66
2019-04-21T07:03:29.416Z,95352.83
2019-04-21T07:06:43.857Z,95354.00
2019-04-21T07:09:47.959Z,95353.95
2019-04-21T07:12:50.978Z,95354.71
2019-04-21T07:16:04.682Z,95350.49
2019-04-21T07:19:22.119Z,95348.38
2019-04-21T07:22:27.363Z,95346.09
2019-04-21T07:28:51.037Z,95339.13
2019-04-21T07:31:59.202Z,95345.94
2019-04-21T07:35:03.946Z,95339.22
2019-04-21T07:38:12.003Z,95342.25
2019-04-21T07:41:18.660Z,95339.72
2019-04-21T07:44:30.235Z,95333.73
2019-04-21T07:47:50.725Z,95339.62
2019-04-21T07:51:09.152Z,95335.18
2019-04-21T07:54:17.261Z,95335.31
2019-04-21T07:57:27.627Z,95339.41
2019-04-21T08:00:45.056Z,95337.95
2019-04-21T08:03:45.490Z,95328.89
2019-04-21T08:06:53.568Z,95326.19
2019-04-21T08:10:07.847Z,95330.06
2019-04-21T08:13:22.287Z,95333.28
2019-04-21T08:16:24.187Z,95332.55
2019-04-21T08:19:32.455Z,95328.94
2019-04-21T08:22:49.409Z,95317.70
2019-04-21T08:26:02.934Z,95320.58
2019-04-21T08:29:12.780Z,95325.69
2019-04-21T08:35:50.543Z,95329.91
2019-04-21T08:38:30.213Z,95323.07
2019-04-21T08:41:41.132Z,95318.14
2019-04-21T08:44:53.708Z,95312.30
2019-04-21T08:48:00.520Z,95314.36
2019-04-21T08:51:26.087Z,95302.47
2019-04-21T08:54:22.041Z,95302.41
2019-04-21T08:57:44.187Z,95304.82
2019-04-21T09:01:01.119Z,95294.77
2019-04-21T09:04:15.591Z,95290.53
2019-04-21T09:07:25.625Z,95293.21
2019-04-21T09:13:42.590Z,95296.33
2019-04-21T09:16:47.494Z,95292.30
2019-04-21T09:20:07.608Z,95296.88
2019-04-21T09:23:07.761Z,95284.91
2019-04-21T09:26:18.717Z,95278.00
2019-04-21T09:29:25.311Z,95281.45
2019-04-21T09:32:23.904Z,95268.72
2019-04-21T09:35:31.426Z,95276.13
2019-04-21T09:38:42.438Z,95274.41
2019-04-21T09:41:53.706Z,95263.84
2019-04-21T09:45:03.202Z,95265.45
2019-04-21T09:48:14.067Z,95267.97
2019-04-21T09:51:20.157Z,95270.66
2019-04-21T09:54:31.993Z,95271.05
2019-04-21T09:57:46.133Z,95269.02
2019-04-21T10:01:00.039Z,95257.73
2019-04-21T10:03:59.849Z,95251.00
2019-04-21T10:08:19.107Z,95253.88
2019-04-21T10:11:28.723Z,95240.74
2019-04-21T10:14:36.946Z,95236.34
2019-04-21T10:17:49.570Z,95230.54
2019-04-21T10:20:58.958Z,95228.56
2019-04-21T10:24:06.451Z,95224.78
2019-04-21T10:27:14.837Z,95206.87
2019-04-21T10:30:22.613Z,95218.41
2019-04-21T10:33:30.882Z,95215.52
2019-04-21T10:36:38.499Z,95209.55
2019-04-21T10:39:47.412Z,95208.78
2019-04-21T10:42:56.366Z,95205.48
2019-04-21T10:46:04.482Z,95200.59
2019-04-21T10:49:12.756Z,95198.68
2019-04-21T10:52:27.889Z,95189.45
2019-04-21T10:55:54.292Z,95185.38
2019-04-21T10:58:49.907Z,95181.84
2019-04-21T11:01:58.944Z,95183.00
2019-04-21T11:05:06.981Z,95176.88
2019-04-21T11:08:24.734Z,95174.40
2019-04-21T11:11:25.920Z,95172.11
2019-04-21T11:14:35.579Z,95168.61
2019-04-21T11:17:45.104Z,95163.81
2019-04-21T11:20:53.149Z,95162.06
2019-04-21T11:24:01.889Z,95164.56
2019-04-21T11:27:10.815Z,95154.50
2019-04-21T11:30:19.909Z,95157.20
2019-04-21T11:33:28.858Z,95146.49
2019-04-21T11:36:37.486Z,95156.09
2019-04-21T11:39:51.944Z,95154.53
2019-04-21T11:42:57.706Z,95143.00
2019-04-21T11:46:06.689Z,95141.66
2019-04-21T11:49:15.836Z,95138.93
2019-04-21T11:52:24.955Z,95137.77
2019-04-21T11:55:36.791Z,95136.06
2019-04-21T11:58:43.618Z,95130.80
2019-04-21T12:01:51.806Z,95128.03
2019-04-21T12:04:59.275Z,95119.31
2019-04-21T12:08:18.951Z,95118.23
2019-04-21T12:11:17.669Z,95121.36
2019-04-21T12:14:25.966Z,95118.38
2019-04-21T12:17:34.155Z,95119.20
2019-04-21T12:20:43.051Z,95109.09
2019-04-21T12:23:50.679Z,95104.61
2019-04-21T12:26:59.793Z,95103.49
2019-04-21T12:30:09.469Z,95101.59
2019-04-21T12:33:40.501Z,95103.30
2019-04-21T12:37:16.970Z,95095.23
2019-04-21T12:40:26.406Z,95084.58
2019-04-21T12:43:34.892Z,95094.15
2019-04-21T12:46:43.608Z,95082.22
2019-04-21T12:49:52.027Z,95079.86
2019-04-21T12:53:00.118Z,95080.02
2019-04-21T12:56:07.709Z,95071.41
2019-04-21T12:59:15.446Z,95071.91
2019-04-21T13:02:23.820Z,95067.89
2019-04-21T13:05:32.012Z,95071.22
2019-04-21T13:08:49.874Z,95058.43
2019-04-21T13:11:50.991Z,95058.43
2019-04-21T13:15:03.912Z,95047.58
2019-04-21T13:18:12.398Z,95053.17
2019-04-21T13:21:20.230Z,95042.50
2019-04-21T13:24:27.493Z,95027.16
2019-04-21T13:27:34.977Z,95038.30
2019-04-21T13:30:44.332Z,95024.86
2019-04-21T13:33:52.317Z,95022.03
2019-04-21T13:37:01.421Z,95019.58
2019-04-21T13:40:49.836Z,95014.76
2019-04-21T13:43:43.602Z,95004.02
2019-04-21T13:46:52.346Z,95006.39
2019-04-21T13:50:02.911Z,94990.88
2019-04-21T13:53:12.308Z,94994.23
2019-04-21T13:56:20.625Z,94991.77
2019-04-21T13:59:28.865Z,94991.28
2019-04-21T14:02:36.622Z,94982.20
2019-04-21T14:05:44.614Z,94970.25
2019-04-21T14:08:52.613Z,94971.17
2019-04-21T14:12:01.360Z,94969.46
2019-04-21T14:15:10.780Z,94970.05
2019-04-21T14:18:20.658Z,94968.01
2019-04-21T14:21:29.410Z,94959.40
2019-04-21T14:24:38.597Z,94966.38
2019-04-21T14:27:49.033Z,94966.24
2019-04-21T14:30:56.518Z,94956.86
2019-04-21T14:34:06.015Z,94952.99
2019-04-21T14:37:14.800Z,94949.23
2019-04-21T14:40:27.347Z,94948.09
2019-04-21T14:43:34.276Z,94947.18
2019-04-21T14:46:50.972Z,94947.13
2019-04-21T14:50:22.321Z,94935.67
2019-04-21T14:53:38.070Z,94931.44
2019-04-21T14:56:47.308Z,94935.34
2019-04-21T14:59:55.674Z,94930.07
2019-04-21T15:03:03.731Z,94928.70
2019-04-21T15:06:11.675Z,94928.35
2019-04-21T15:09:20.910Z,94924.62
2019-04-21T15:12:29.926Z,94925.08
2019-04-21T15:15:38.067Z,94924.30
2019-04-21T15:18:47.025Z,94924.16
2019-04-21T15:21:56.581Z,94916.64
2019-04-21T15:25:05.874Z,94912.50
2019-04-21T15:28:14.293Z,94910.05
2019-04-21T15:31:28.730Z,94917.91
2019-04-21T15:34:31.946Z,94912.59
2019-04-21T15:37:39.983Z,94907.09
2019-04-21T15:40:53.878Z,94912.57
2019-04-21T15:43:59.531Z,94904.45
2019-04-21T15:47:08.237Z,94900.08
2019-04-21T15:50:18.159Z,94906.97
2019-04-21T15:53:27.643Z,94903.89
2019-04-21T15:56:49.128Z,94895.08
2019-04-21T16:00:08.739Z,94896.29
2019-04-21T16:03:16.573Z,94891.55
2019-04-21T16:06:25.681Z,94884.80
2019-04-21T16:09:35.830Z,94882.66
2019-04-21T16:12:43.776Z,94881.75
2019-04-21T16:15:52.510Z,94877.95
2019-04-21T16:19:00.548Z,94881.42
2019-04-21T16:22:08.737Z,94879.36
2019-04-21T16:25:17.055Z,94876.50
2019-04-21T16:28:24.929Z,94878.28
2019-04-21T16:31:32.594Z,94874.31
2019-04-21T16:34:47.308Z,94869.30
2019-04-21T16:37:49.800Z,94871.23
2019-04-21T16:41:01.706Z,94870.30
2019-04-21T16:44:07.561Z,94870.14
2019-04-21T16:47:15.201Z,94859.97
2019-04-21T16:50:25.426Z,94864.20
2019-04-21T16:53:37.755Z,94861.38
2019-04-21T16:56:53.999Z,94859.67
2019-04-21T17:00:06.512Z,94855.24
2019-04-21T17:03:14.697Z,94853.34
2019-04-21T17:06:23.014Z,94860.89
2019-04-21T17:09:32.652Z,94853.61
2019-04-21T17:12:41.744Z,94851.09
2019-04-21T17:16:06.361Z,94858.63
2019-04-21T17:19:12.801Z,94857.26
2019-04-21T17:22:11.719Z,94862.86
2019-04-21T17:25:21.592Z,94859.58
2019-04-21T17:28:31.755Z,94855.92
2019-04-21T17:31:39.513Z,94850.16
2019-04-21T17:34:47.957Z,94851.11
2019-04-21T17:37:56.353Z,94851.30
2019-04-21T17:41:19.480Z,94851.88
2019-04-21T17:44:15.005Z,94853.55
2019-04-21T17:47:38.476Z,94849.28
2019-04-21T17:50:51.459Z,94849.39
2019-04-21T17:54:13.756Z,94846.88
2019-04-21T17:57:36.467Z,94853.89
2019-04-21T18:01:06.563Z,94850.09
2019-04-21T18:04:03.634Z,94854.85
2019-04-21T18:07:17.317Z,94853.66
2019-04-21T18:10:30.630Z,94857.48
2019-04-21T18:13:26.087Z,94854.89
2019-04-21T18:16:39.072Z,94857.72
2019-04-21T18:19:43.254Z,94855.50
2019-04-21T18:23:00.909Z,94857.34
2019-04-21T18:26:23.211Z,94855.82
2019-04-21T18:29:18.710Z,94857.84
2019-04-21T18:32:30.797Z,94862.17
2019-04-21T18:36:06.683Z,94861.48
2019-04-21T18:39:34.291Z,94870.45
2019-04-21T18:42:53.195Z,94871.08
2019-04-21T18:46:22.329Z,94881.03
2019-04-21T18:49:13.146Z,94881.83
2019-04-21T18:52:45.233Z,94881.00
2019-04-21T18:55:45.125Z,94881.88
2019-04-21T18:58:48.507Z,94887.41
2019-04-21T19:02:02.015Z,94886.87
2019-04-21T19:05:15.147Z,94878.70
2019-04-21T19:08:30.983Z,94882.33
2019-04-21T19:11:43.334Z,94880.13
2019-04-21T19:14:52.183Z,94880.88
2019-04-21T19:21:11.179Z,94874.21
2019-04-21T19:27:31.040Z,94879.09
2019-04-21T19:30:52.610Z,94887.58
2019-04-21T19:33:48.169Z,94879.13
2019-04-21T19:36:52.054Z,94875.32
2019-04-21T19:40:07.777Z,94876.12
2019-04-21T19:43:29.422Z,94871.98
2019-04-21T19:46:31.252Z,94871.02
2019-04-21T19:49:51.347Z,94868.94
2019-04-21T19:52:46.660Z,94867.41
2019-04-21T19:55:45.765Z,94867.36
2019-04-21T19:58:54.923Z,94865.83
2019-04-21T20:02:24.708Z,94868.59
2019-04-21T20:05:43.067Z,94862.39
2019-04-21T20:09:01.827Z,94860.08
2019-04-21T20:12:08.209Z,94857.32
2019-04-21T20:15:26.056Z,94850.02
2019-04-21T20:18:21.255Z,94855.02
2019-04-21T20:21:21.013Z,94853.58
2019-04-21T20:24:32.463Z,94854.59
2019-04-21T20:27:49.504Z,94851.40
2019-04-21T20:31:08.302Z,94854.39
2019-04-21T20:34:17.721Z,94854.27
2019-04-21T20:37:26.572Z,94848.41
2019-04-21T20:40:28.535Z,94855.23
2019-04-21T20:43:45.659Z,94850.25
2019-04-21T20:46:51.017Z,94848.69
2019-04-21T20:50:04.405Z,94851.25
2019-04-21T20:53:12.335Z,94841.27
2019-04-21T20:56:17.168Z,94843.78
2019-04-21T20:59:28.662Z,94842.86
2019-04-21T21:02:49.384Z,94839.47
2019-04-21T21:05:48.017Z,94840.42
2019-04-21T21:09:01.480Z,94837.64
2019-04-21T21:12:22.357Z,94831.73
2019-04-21T21:15:24.694Z,94821.11
2019-04-21T21:19:01.192Z,94824.94
2019-04-21T21:21:43.124Z,94821.61
2019-04-21T21:24:50.795Z,94819.73
2019-04-21T21:27:55.172Z,94830.97
2019-04-21T21:31:13.336Z,94829.66
2019-04-21T21:34:27.727Z,94825.05
2019-04-21T21:37:49.519Z,94823.73
2019-04-21T21:40:40.686Z,94821.36
2019-04-21T21:43:34.430Z,94816.90
2019-04-21T21:46:55.347Z,94808.27
2019-04-21T21:50:06.102Z,94803.37
2019-04-21T21:53:09.715Z,94804.23
2019-04-21T21:56:10.961Z,94800.05
2019-04-21T21:59:22.903Z,94793.03
2019-04-21T22:02:36.076Z,94790.49
2019-04-21T22:05:45.537Z,94787.01
2019-04-21T22:08:48.328Z,94781.13
2019-04-21T22:12:00.468Z,94783.87
2019-04-21T22:15:13.960Z,94778.22
2019-04-21T22:18:34.990Z,94776.40
2019-04-21T22:21:49.418Z,94772.98
2019-04-21T22:24:49.297Z,94775.27
2019-04-21T22:27:48.782Z,94768.26
2019-04-21T22:30:56.969Z,94769.36
2019-04-21T22:34:07.571Z,94761.89
2019-04-21T22:37:30.849Z,94766.22
2019-04-21T22:40:42.971Z,94767.77
2019-04-21T22:43:39.946Z,94764.73
2019-04-21T22:46:54.845Z,94769.99
2019-04-21T22:49:52.849Z,94771.58
2019-04-21T22:53:05.839Z,94771.43
2019-04-21T22:56:14.962Z,94766.95
2019-04-21T22:59:22.227Z,94764.81
2019-04-21T23:02:31.649Z,94767.98
2019-04-21T23:05:41.125Z,94768.66
2019-04-21T23:08:48.090Z,94764.48
2019-04-21T23:11:58.441Z,94764.66
2019-04-21T23:15:13.226Z,94759.38
2019-04-21T23:18:30.546Z,94765.27
2019-04-21T23:21:45.795Z,94759.71
2019-04-21T23:24:59.341Z,94753.20
2019-04-21T23:28:03.460Z,94755.95
2019-04-21T23:31:12.461Z,94749.42
2019-04-21T23:34:04.506Z,94749.45
2019-04-21T23:37:17.762Z,94747.04
2019-04-21T23:40:24.145Z,94747.17
2019-04-21T23:43:35.433Z,94739.48
2019-04-21T23:46:44.456Z,94738.70
2019-04-21T23:50:00.097Z,94735.30
2019-04-21T23:53:03.577Z,94742.06
2019-04-21T23:56:13.427Z,94736.20
2019-04-21T23:59:20.701Z,94732.34
